sensor_id;sensor_type;location;lat;lon;timestamp;temperature;humidity
17172;DHT22;8701;50.150;8.756;2024-02-14T00:01:49;7.40;99.90
17172;DHT22;8701;50.150;8.756;2024-02-14T00:05:52;7.40;99.90
17172;DHT22;8701;50.150;8.756;2024-02-14T00:09:56;7.40;99.90
17172;DHT22;8701;50.150;8.756;2024-02-14T00:14:00;7.40;99.90
17172;DHT22;8701;50.150;8.756;2024-02-14T00:18:02;7.50;99.90
17172;DHT22;8701;50.150;8.756;2024-02-14T00:22:05;7.50;99.90
17172;DHT22;8701;50.150;8.756;2024-02-14T00:26:08;7.50;99.90
17172;DHT22;8701;50.150;8.756;2024-02-14T00:30:11;7.50;99.90
17172;DHT22;8701;50.150;8.756;2024-02-14T00:34:13;7.70;99.90
17172;DHT22;8701;50.150;8.756;2024-02-14T00:38:17;7.80;99.90
17172;DHT22;8701;50.150;8.756;2024-02-14T00:42:19;7.90;99.90
17172;DHT22;8701;50.150;8.756;2024-02-14T00:46:22;8.00;99.90
17172;DHT22;8701;50.150;8.756;2024-02-14T00:50:24;8.10;99.90
17172;DHT22;8701;50.150;8.756;2024-02-14T00:54:27;8.20;99.90
17172;DHT22;8701;50.150;8.756;2024-02-14T00:58:30;8.30;99.90
17172;DHT22;8701;50.150;8.756;2024-02-14T01:02:32;8.30;99.90
17172;DHT22;8701;50.150;8.756;2024-02-14T01:06:34;8.30;99.90
17172;DHT22;8701;50.150;8.756;2024-02-14T01:10:38;8.30;99.90
17172;DHT22;8701;50.150;8.756;2024-02-14T01:14:40;8.40;99.90
17172;DHT22;8701;50.150;8.756;2024-02-14T01:18:42;8.30;99.90
17172;DHT22;8701;50.150;8.756;2024-02-14T01:22:46;8.30;99.90
17172;DHT22;8701;50.150;8.756;2024-02-14T01:26:50;8.20;99.90
17172;DHT22;8701;50.150;8.756;2024-02-14T01:30:52;8.10;99.90
17172;DHT22;8701;50.150;8.756;2024-02-14T01:34:55;8.10;99.90
17172;DHT22;8701;50.150;8.756;2024-02-14T01:38:58;8.10;99.90
17172;DHT22;8701;50.150;8.756;2024-02-14T01:43:01;8.00;99.90
17172;DHT22;8701;50.150;8.756;2024-02-14T01:47:04;8.00;99.90
17172;DHT22;8701;50.150;8.756;2024-02-14T01:51:08;7.90;99.90
17172;DHT22;8701;50.150;8.756;2024-02-14T01:55:13;7.90;99.90
17172;DHT22;8701;50.150;8.756;2024-02-14T01:59:16;8.00;99.90
17172;DHT22;8701;50.150;8.756;2024-02-14T02:03:19;8.00;99.90
17172;DHT22;8701;50.150;8.756;2024-02-14T02:07:21;8.00;99.90
17172;DHT22;8701;50.150;8.756;2024-02-14T02:11:24;8.00;99.90
17172;DHT22;8701;50.150;8.756;2024-02-14T02:15:28;8.00;99.90
17172;DHT22;8701;50.150;8.756;2024-02-14T02:19:31;8.10;99.90
17172;DHT22;8701;50.150;8.756;2024-02-14T02:23:35;8.10;99.90
17172;DHT22;8701;50.150;8.756;2024-02-14T02:27:37;8.10;99.90
17172;DHT22;8701;50.150;8.756;2024-02-14T02:31:39;8.10;99.90
17172;DHT22;8701;50.150;8.756;2024-02-14T02:35:42;8.10;99.90
17172;DHT22;8701;50.150;8.756;2024-02-14T02:39:47;8.10;99.90
17172;DHT22;8701;50.150;8.756;2024-02-14T02:43:50;8.00;99.90
17172;DHT22;8701;50.150;8.756;2024-02-14T02:47:52;8.00;99.90
17172;DHT22;8701;50.150;8.756;2024-02-14T02:51:55;7.90;99.90
17172;DHT22;8701;50.150;8.756;2024-02-14T02:55:59;7.80;99.90
17172;DHT22;8701;50.150;8.756;2024-02-14T03:00:01;7.80;99.90
17172;DHT22;8701;50.150;8.756;2024-02-14T03:04:04;7.80;99.90
17172;DHT22;8701;50.150;8.756;2024-02-14T03:08:06;7.80;99.90
17172;DHT22;8701;50.150;8.756;2024-02-14T03:12:10;7.70;99.90
17172;DHT22;8701;50.150;8.756;2024-02-14T03:16:17;7.70;99.90
17172;DHT22;8701;50.150;8.756;2024-02-14T03:20:19;7.80;99.90
17172;DHT22;8701;50.150;8.756;2024-02-14T03:24:21;7.80;99.90
17172;DHT22;8701;50.150;8.756;2024-02-14T03:28:28;7.80;99.90
17172;DHT22;8701;50.150;8.756;2024-02-14T03:32:30;7.90;99.90
17172;DHT22;8701;50.150;8.756;2024-02-14T03:36:36;7.90;99.90
17172;DHT22;8701;50.150;8.756;2024-02-14T03:40:39;8.00;99.90
17172;DHT22;8701;50.150;8.756;2024-02-14T03:44:45;8.00;99.90
17172;DHT22;8701;50.150;8.756;2024-02-14T03:48:47;8.10;99.90
17172;DHT22;8701;50.150;8.756;2024-02-14T03:52:50;8.20;99.90
17172;DHT22;8701;50.150;8.756;2024-02-14T03:56:52;8.40;99.90
17172;DHT22;8701;50.150;8.756;2024-02-14T04:00:57;8.50;99.90
17172;DHT22;8701;50.150;8.756;2024-02-14T04:04:59;8.60;99.90
17172;DHT22;8701;50.150;8.756;2024-02-14T04:09:03;8.50;99.90
17172;DHT22;8701;50.150;8.756;2024-02-14T04:13:05;8.80;99.90
17172;DHT22;8701;50.150;8.756;2024-02-14T04:17:09;8.60;99.90
17172;DHT22;8701;50.150;8.756;2024-02-14T04:21:13;8.70;99.90
17172;DHT22;8701;50.150;8.756;2024-02-14T04:25:15;8.80;99.90
17172;DHT22;8701;50.150;8.756;2024-02-14T04:29:18;8.80;99.90
17172;DHT22;8701;50.150;8.756;2024-02-14T04:33:21;8.80;99.90
17172;DHT22;8701;50.150;8.756;2024-02-14T04:37:23;8.90;99.90
17172;DHT22;8701;50.150;8.756;2024-02-14T04:41:25;9.00;99.90
17172;DHT22;8701;50.150;8.756;2024-02-14T04:45:28;9.00;99.90
17172;DHT22;8701;50.150;8.756;2024-02-14T04:49:31;9.10;99.90
17172;DHT22;8701;50.150;8.756;2024-02-14T04:53:33;9.10;99.90
17172;DHT22;8701;50.150;8.756;2024-02-14T04:57:36;9.00;99.90
17172;DHT22;8701;50.150;8.756;2024-02-14T05:01:39;9.10;99.90
17172;DHT22;8701;50.150;8.756;2024-02-14T05:05:42;9.20;99.90
17172;DHT22;8701;50.150;8.756;2024-02-14T05:09:45;9.20;99.90
17172;DHT22;8701;50.150;8.756;2024-02-14T05:13:49;9.10;99.90
17172;DHT22;8701;50.150;8.756;2024-02-14T05:17:52;9.20;99.90
17172;DHT22;8701;50.150;8.756;2024-02-14T05:21:56;9.20;99.90
17172;DHT22;8701;50.150;8.756;2024-02-14T05:25:58;9.10;99.90
17172;DHT22;8701;50.150;8.756;2024-02-14T05:30:00;9.30;99.90
17172;DHT22;8701;50.150;8.756;2024-02-14T05:34:06;9.10;99.90
17172;DHT22;8701;50.150;8.756;2024-02-14T05:38:10;9.20;99.90
17172;DHT22;8701;50.150;8.756;2024-02-14T05:42:14;8.90;99.90
17172;DHT22;8701;50.150;8.756;2024-02-14T05:46:17;8.90;99.90
17172;DHT22;8701;50.150;8.756;2024-02-14T05:50:22;9.00;99.90
17172;DHT22;8701;50.150;8.756;2024-02-14T05:54:26;9.10;99.90
17172;DHT22;8701;50.150;8.756;2024-02-14T05:58:28;9.20;99.90
17172;DHT22;8701;50.150;8.756;2024-02-14T06:02:30;9.20;99.90
17172;DHT22;8701;50.150;8.756;2024-02-14T06:06:32;9.10;99.90
17172;DHT22;8701;50.150;8.756;2024-02-14T06:10:36;9.20;99.90
17172;DHT22;8701;50.150;8.756;2024-02-14T06:14:39;9.30;99.90
17172;DHT22;8701;50.150;8.756;2024-02-14T06:18:42;9.20;99.90
17172;DHT22;8701;50.150;8.756;2024-02-14T06:22:44;9.20;99.90
17172;DHT22;8701;50.150;8.756;2024-02-14T06:26:48;9.30;99.90
17172;DHT22;8701;50.150;8.756;2024-02-14T06:30:50;9.30;99.90
17172;DHT22;8701;50.150;8.756;2024-02-14T06:34:53;9.30;99.90
17172;DHT22;8701;50.150;8.756;2024-02-14T06:38:55;9.30;99.90
17172;DHT22;8701;50.150;8.756;2024-02-14T06:42:59;9.40;99.90
17172;DHT22;8701;50.150;8.756;2024-02-14T06:47:01;9.40;99.90
17172;DHT22;8701;50.150;8.756;2024-02-14T06:51:05;9.20;99.90
17172;DHT22;8701;50.150;8.756;2024-02-14T06:55:08;9.20;99.90
17172;DHT22;8701;50.150;8.756;2024-02-14T06:59:11;9.20;99.90
17172;DHT22;8701;50.150;8.756;2024-02-14T07:03:14;9.20;99.90
17172;DHT22;8701;50.150;8.756;2024-02-14T07:07:16;9.20;99.90
17172;DHT22;8701;50.150;8.756;2024-02-14T07:11:19;9.10;99.90
17172;DHT22;8701;50.150;8.756;2024-02-14T07:15:22;9.30;99.90
17172;DHT22;8701;50.150;8.756;2024-02-14T07:19:29;9.40;99.90
17172;DHT22;8701;50.150;8.756;2024-02-14T07:23:31;9.50;99.90
17172;DHT22;8701;50.150;8.756;2024-02-14T07:27:35;9.50;99.90
17172;DHT22;8701;50.150;8.756;2024-02-14T07:31:39;9.50;99.90
17172;DHT22;8701;50.150;8.756;2024-02-14T07:35:42;9.70;99.90
17172;DHT22;8701;50.150;8.756;2024-02-14T07:39:44;9.60;99.90
17172;DHT22;8701;50.150;8.756;2024-02-14T07:43:47;9.70;99.90
17172;DHT22;8701;50.150;8.756;2024-02-14T07:47:51;9.70;99.90
17172;DHT22;8701;50.150;8.756;2024-02-14T07:51:53;9.60;99.90
17172;DHT22;8701;50.150;8.756;2024-02-14T07:55:56;9.60;99.90
17172;DHT22;8701;50.150;8.756;2024-02-14T07:59:58;9.60;99.90
17172;DHT22;8701;50.150;8.756;2024-02-14T08:04:01;9.40;99.90
17172;DHT22;8701;50.150;8.756;2024-02-14T08:08:05;9.40;99.90
17172;DHT22;8701;50.150;8.756;2024-02-14T08:12:07;9.50;99.90
17172;DHT22;8701;50.150;8.756;2024-02-14T08:16:09;9.70;99.90
17172;DHT22;8701;50.150;8.756;2024-02-14T08:20:13;9.70;99.90
17172;DHT22;8701;50.150;8.756;2024-02-14T08:24:15;9.70;99.90
17172;DHT22;8701;50.150;8.756;2024-02-14T08:28:19;9.80;99.90
17172;DHT22;8701;50.150;8.756;2024-02-14T08:32:21;9.70;99.90
17172;DHT22;8701;50.150;8.756;2024-02-14T08:36:25;9.60;99.90
17172;DHT22;8701;50.150;8.756;2024-02-14T08:40:27;9.70;99.90
17172;DHT22;8701;50.150;8.756;2024-02-14T08:44:30;9.90;99.90
17172;DHT22;8701;50.150;8.756;2024-02-14T08:48:33;9.80;99.90
17172;DHT22;8701;50.150;8.756;2024-02-14T08:52:37;9.90;99.90
17172;DHT22;8701;50.150;8.756;2024-02-14T08:56:40;9.90;99.90
17172;DHT22;8701;50.150;8.756;2024-02-14T09:00:42;9.90;99.90
17172;DHT22;8701;50.150;8.756;2024-02-14T09:04:44;9.90;99.90
17172;DHT22;8701;50.150;8.756;2024-02-14T09:08:48;10.00;99.90
17172;DHT22;8701;50.150;8.756;2024-02-14T09:12:51;9.90;99.90
17172;DHT22;8701;50.150;8.756;2024-02-14T09:16:54;9.90;99.90
17172;DHT22;8701;50.150;8.756;2024-02-14T09:20:56;10.00;99.90
17172;DHT22;8701;50.150;8.756;2024-02-14T09:24:59;10.00;99.90
17172;DHT22;8701;50.150;8.756;2024-02-14T09:29:02;9.90;99.90
17172;DHT22;8701;50.150;8.756;2024-02-14T09:33:04;9.90;99.90
17172;DHT22;8701;50.150;8.756;2024-02-14T09:37:07;9.90;99.90
17172;DHT22;8701;50.150;8.756;2024-02-14T09:41:15;10.10;99.90
17172;DHT22;8701;50.150;8.756;2024-02-14T09:45:22;10.00;99.90
17172;DHT22;8701;50.150;8.756;2024-02-14T09:49:26;10.00;99.90
17172;DHT22;8701;50.150;8.756;2024-02-14T09:53:28;10.00;99.90
17172;DHT22;8701;50.150;8.756;2024-02-14T09:57:33;10.00;99.90
17172;DHT22;8701;50.150;8.756;2024-02-14T10:01:35;10.00;99.90
17172;DHT22;8701;50.150;8.756;2024-02-14T10:05:38;9.90;99.90
17172;DHT22;8701;50.150;8.756;2024-02-14T10:09:41;9.90;99.90
17172;DHT22;8701;50.150;8.756;2024-02-14T10:13:45;9.90;99.90
17172;DHT22;8701;50.150;8.756;2024-02-14T10:17:48;9.90;99.90
17172;DHT22;8701;50.150;8.756;2024-02-14T10:21:56;9.90;99.90
17172;DHT22;8701;50.150;8.756;2024-02-14T10:25:59;9.90;99.90
17172;DHT22;8701;50.150;8.756;2024-02-14T10:30:04;9.90;99.90
17172;DHT22;8701;50.150;8.756;2024-02-14T10:34:10;10.10;99.90
17172;DHT22;8701;50.150;8.756;2024-02-14T10:38:14;10.30;99.90
17172;DHT22;8701;50.150;8.756;2024-02-14T10:42:17;10.40;99.90
17172;DHT22;8701;50.150;8.756;2024-02-14T10:46:23;10.70;99.90
17172;DHT22;8701;50.150;8.756;2024-02-14T10:50:28;10.70;99.90
17172;DHT22;8701;50.150;8.756;2024-02-14T10:54:32;10.70;99.90
17172;DHT22;8701;50.150;8.756;2024-02-14T10:58:36;10.70;99.90
17172;DHT22;8701;50.150;8.756;2024-02-14T11:02:41;10.60;99.90
17172;DHT22;8701;50.150;8.756;2024-02-14T11:06:45;10.60;99.90
17172;DHT22;8701;50.150;8.756;2024-02-14T11:10:53;10.70;99.90
17172;DHT22;8701;50.150;8.756;2024-02-14T11:14:57;10.80;99.90
17172;DHT22;8701;50.150;8.756;2024-02-14T11:19:10;10.80;99.90
17172;DHT22;8701;50.150;8.756;2024-02-14T11:23:12;10.80;99.90
17172;DHT22;8701;50.150;8.756;2024-02-14T11:27:23;11.00;99.90
17172;DHT22;8701;50.150;8.756;2024-02-14T11:31:32;11.30;99.90
17172;DHT22;8701;50.150;8.756;2024-02-14T11:35:38;11.50;99.90
17172;DHT22;8701;50.150;8.756;2024-02-14T11:39:41;11.60;99.90
17172;DHT22;8701;50.150;8.756;2024-02-14T11:43:50;11.70;99.90
17172;DHT22;8701;50.150;8.756;2024-02-14T11:47:53;11.90;99.90
17172;DHT22;8701;50.150;8.756;2024-02-14T11:51:56;12.00;99.90
17172;DHT22;8701;50.150;8.756;2024-02-14T11:56:00;12.00;99.90
17172;DHT22;8701;50.150;8.756;2024-02-14T12:00:04;11.90;99.90
17172;DHT22;8701;50.150;8.756;2024-02-14T12:04:10;11.80;99.90
17172;DHT22;8701;50.150;8.756;2024-02-14T12:08:15;11.80;99.90
17172;DHT22;8701;50.150;8.756;2024-02-14T12:12:17;11.70;99.90
17172;DHT22;8701;50.150;8.756;2024-02-14T12:16:20;11.70;99.90
17172;DHT22;8701;50.150;8.756;2024-02-14T12:20:23;11.70;99.90
17172;DHT22;8701;50.150;8.756;2024-02-14T12:24:27;11.70;99.90
17172;DHT22;8701;50.150;8.756;2024-02-14T12:28:31;11.60;99.90
17172;DHT22;8701;50.150;8.756;2024-02-14T12:32:33;11.60;99.90
17172;DHT22;8701;50.150;8.756;2024-02-14T12:36:36;11.50;99.90
17172;DHT22;8701;50.150;8.756;2024-02-14T12:40:41;11.50;99.90
17172;DHT22;8701;50.150;8.756;2024-02-14T12:44:43;11.60;99.90
17172;DHT22;8701;50.150;8.756;2024-02-14T12:48:45;11.50;99.90
17172;DHT22;8701;50.150;8.756;2024-02-14T12:52:49;11.50;99.90
17172;DHT22;8701;50.150;8.756;2024-02-14T12:56:53;11.50;99.90
17172;DHT22;8701;50.150;8.756;2024-02-14T13:00:55;11.50;99.90
17172;DHT22;8701;50.150;8.756;2024-02-14T13:04:57;11.50;99.90
17172;DHT22;8701;50.150;8.756;2024-02-14T13:08:59;11.50;99.90
17172;DHT22;8701;50.150;8.756;2024-02-14T13:13:03;11.60;99.90
17172;DHT22;8701;50.150;8.756;2024-02-14T13:17:06;11.60;99.90
17172;DHT22;8701;50.150;8.756;2024-02-14T13:21:08;11.60;99.90
17172;DHT22;8701;50.150;8.756;2024-02-14T13:25:10;11.60;99.90
17172;DHT22;8701;50.150;8.756;2024-02-14T13:29:14;11.60;99.90
17172;DHT22;8701;50.150;8.756;2024-02-14T13:33:18;11.60;99.90
17172;DHT22;8701;50.150;8.756;2024-02-14T13:37:20;11.60;99.90
17172;DHT22;8701;50.150;8.756;2024-02-14T13:41:22;11.60;99.90
17172;DHT22;8701;50.150;8.756;2024-02-14T13:45:27;11.50;99.90
17172;DHT22;8701;50.150;8.756;2024-02-14T13:49:41;11.50;99.90
17172;DHT22;8701;50.150;8.756;2024-02-14T13:53:43;11.50;99.90
17172;DHT22;8701;50.150;8.756;2024-02-14T13:57:46;11.60;99.90
17172;DHT22;8701;50.150;8.756;2024-02-14T14:01:50;11.60;99.90
17172;DHT22;8701;50.150;8.756;2024-02-14T14:05:53;11.60;99.90
17172;DHT22;8701;50.150;8.756;2024-02-14T14:09:55;11.70;99.90
17172;DHT22;8701;50.150;8.756;2024-02-14T14:13:57;11.60;99.90
17172;DHT22;8701;50.150;8.756;2024-02-14T14:18:03;11.70;99.90
17172;DHT22;8701;50.150;8.756;2024-02-14T14:22:05;11.70;99.90
17172;DHT22;8701;50.150;8.756;2024-02-14T14:26:07;11.70;99.90
17172;DHT22;8701;50.150;8.756;2024-02-14T14:30:11;11.70;99.90
17172;DHT22;8701;50.150;8.756;2024-02-14T14:34:15;11.70;99.90
17172;DHT22;8701;50.150;8.756;2024-02-14T14:38:18;11.70;99.90
17172;DHT22;8701;50.150;8.756;2024-02-14T14:42:20;11.70;99.90
17172;DHT22;8701;50.150;8.756;2024-02-14T14:46:22;11.70;99.90
17172;DHT22;8701;50.150;8.756;2024-02-14T14:50:26;11.70;99.90
17172;DHT22;8701;50.150;8.756;2024-02-14T14:54:28;11.60;99.90
17172;DHT22;8701;50.150;8.756;2024-02-14T14:58:30;11.60;99.90
17172;DHT22;8701;50.150;8.756;2024-02-14T15:02:35;11.60;99.90
17172;DHT22;8701;50.150;8.756;2024-02-14T15:06:40;11.60;99.90
17172;DHT22;8701;50.150;8.756;2024-02-14T15:10:42;11.60;99.90
17172;DHT22;8701;50.150;8.756;2024-02-14T15:14:44;11.60;99.90
17172;DHT22;8701;50.150;8.756;2024-02-14T15:18:47;11.70;99.90
17172;DHT22;8701;50.150;8.756;2024-02-14T15:22:50;11.60;99.90
17172;DHT22;8701;50.150;8.756;2024-02-14T15:26:53;11.60;99.90
17172;DHT22;8701;50.150;8.756;2024-02-14T15:31:01;11.50;99.90
17172;DHT22;8701;50.150;8.756;2024-02-14T15:35:20;11.50;99.90
17172;DHT22;8701;50.150;8.756;2024-02-14T15:39:24;11.50;99.90
17172;DHT22;8701;50.150;8.756;2024-02-14T15:43:27;11.50;99.90
17172;DHT22;8701;50.150;8.756;2024-02-14T15:47:29;11.50;99.90
17172;DHT22;8701;50.150;8.756;2024-02-14T15:51:31;11.50;99.90
17172;DHT22;8701;50.150;8.756;2024-02-14T15:55:35;11.50;99.90
17172;DHT22;8701;50.150;8.756;2024-02-14T15:59:37;11.50;99.90
17172;DHT22;8701;50.150;8.756;2024-02-14T16:03:41;11.50;99.90
17172;DHT22;8701;50.150;8.756;2024-02-14T16:07:43;11.40;99.90
17172;DHT22;8701;50.150;8.756;2024-02-14T16:11:47;11.40;99.90
17172;DHT22;8701;50.150;8.756;2024-02-14T16:15:49;11.40;99.90
17172;DHT22;8701;50.150;8.756;2024-02-14T16:19:52;11.30;99.90
17172;DHT22;8701;50.150;8.756;2024-02-14T16:23:54;11.30;99.90
17172;DHT22;8701;50.150;8.756;2024-02-14T16:27:57;11.30;99.90
17172;DHT22;8701;50.150;8.756;2024-02-14T16:32:00;11.40;99.90
17172;DHT22;8701;50.150;8.756;2024-02-14T16:36:02;11.30;99.90
17172;DHT22;8701;50.150;8.756;2024-02-14T16:40:05;11.30;99.90
17172;DHT22;8701;50.150;8.756;2024-02-14T16:44:10;11.30;99.90
17172;DHT22;8701;50.150;8.756;2024-02-14T16:48:13;11.40;99.90
17172;DHT22;8701;50.150;8.756;2024-02-14T16:52:15;11.30;99.90
17172;DHT22;8701;50.150;8.756;2024-02-14T16:56:18;11.40;99.90
17172;DHT22;8701;50.150;8.756;2024-02-14T17:00:21;11.30;99.90
17172;DHT22;8701;50.150;8.756;2024-02-14T17:04:23;11.30;99.90
17172;DHT22;8701;50.150;8.756;2024-02-14T17:08:26;11.30;99.90
17172;DHT22;8701;50.150;8.756;2024-02-14T17:12:28;11.30;99.90
17172;DHT22;8701;50.150;8.756;2024-02-14T17:16:32;11.30;99.90
17172;DHT22;8701;50.150;8.756;2024-02-14T17:20:36;11.40;99.90
17172;DHT22;8701;50.150;8.756;2024-02-14T17:24:38;11.40;99.90
17172;DHT22;8701;50.150;8.756;2024-02-14T17:28:41;11.40;99.90
17172;DHT22;8701;50.150;8.756;2024-02-14T17:32:44;11.40;99.90
17172;DHT22;8701;50.150;8.756;2024-02-14T17:36:49;11.40;99.90
17172;DHT22;8701;50.150;8.756;2024-02-14T17:40:51;11.40;99.90
17172;DHT22;8701;50.150;8.756;2024-02-14T17:44:54;11.30;99.90
17172;DHT22;8701;50.150;8.756;2024-02-14T17:48:58;11.30;99.90
17172;DHT22;8701;50.150;8.756;2024-02-14T17:53:00;11.30;99.90
17172;DHT22;8701;50.150;8.756;2024-02-14T17:57:03;11.30;99.90
17172;DHT22;8701;50.150;8.756;2024-02-14T18:01:05;11.30;99.90
17172;DHT22;8701;50.150;8.756;2024-02-14T18:05:09;11.30;99.90
17172;DHT22;8701;50.150;8.756;2024-02-14T18:09:12;11.40;99.90
17172;DHT22;8701;50.150;8.756;2024-02-14T18:13:14;11.40;99.90
17172;DHT22;8701;50.150;8.756;2024-02-14T18:17:16;11.40;99.90
17172;DHT22;8701;50.150;8.756;2024-02-14T18:21:20;11.30;99.90
17172;DHT22;8701;50.150;8.756;2024-02-14T18:25:22;11.30;99.90
17172;DHT22;8701;50.150;8.756;2024-02-14T18:29:25;11.30;99.90
17172;DHT22;8701;50.150;8.756;2024-02-14T18:33:27;11.30;99.90
17172;DHT22;8701;50.150;8.756;2024-02-14T18:37:31;11.30;99.90
17172;DHT22;8701;50.150;8.756;2024-02-14T18:41:33;11.30;99.90
17172;DHT22;8701;50.150;8.756;2024-02-14T18:45:36;11.40;99.90
17172;DHT22;8701;50.150;8.756;2024-02-14T18:49:38;11.40;99.90
17172;DHT22;8701;50.150;8.756;2024-02-14T18:53:46;11.50;99.90
17172;DHT22;8701;50.150;8.756;2024-02-14T18:57:50;11.40;99.90
17172;DHT22;8701;50.150;8.756;2024-02-14T19:01:54;11.40;99.90
17172;DHT22;8701;50.150;8.756;2024-02-14T19:05:56;11.50;99.90
17172;DHT22;8701;50.150;8.756;2024-02-14T19:10:00;11.60;99.90
17172;DHT22;8701;50.150;8.756;2024-02-14T19:14:02;11.60;99.90
17172;DHT22;8701;50.150;8.756;2024-02-14T19:18:05;11.60;99.90
17172;DHT22;8701;50.150;8.756;2024-02-14T19:22:08;11.60;99.90
17172;DHT22;8701;50.150;8.756;2024-02-14T19:26:13;11.60;99.90
17172;DHT22;8701;50.150;8.756;2024-02-14T19:30:15;11.60;99.90
17172;DHT22;8701;50.150;8.756;2024-02-14T19:34:18;11.60;99.90
17172;DHT22;8701;50.150;8.756;2024-02-14T19:38:21;11.60;99.90
17172;DHT22;8701;50.150;8.756;2024-02-14T19:42:25;11.60;99.90
17172;DHT22;8701;50.150;8.756;2024-02-14T19:46:27;11.60;99.90
17172;DHT22;8701;50.150;8.756;2024-02-14T19:50:29;11.60;99.90
17172;DHT22;8701;50.150;8.756;2024-02-14T19:54:32;11.60;99.90
17172;DHT22;8701;50.150;8.756;2024-02-14T19:58:36;11.60;99.90
17172;DHT22;8701;50.150;8.756;2024-02-14T20:02:39;11.60;99.90
17172;DHT22;8701;50.150;8.756;2024-02-14T20:06:42;11.70;99.90
17172;DHT22;8701;50.150;8.756;2024-02-14T20:10:45;11.60;99.90
17172;DHT22;8701;50.150;8.756;2024-02-14T20:14:49;11.60;99.90
17172;DHT22;8701;50.150;8.756;2024-02-14T20:18:52;11.60;99.90
17172;DHT22;8701;50.150;8.756;2024-02-14T20:22:54;11.60;99.90
17172;DHT22;8701;50.150;8.756;2024-02-14T20:26:57;11.70;99.90
17172;DHT22;8701;50.150;8.756;2024-02-14T20:31:01;11.70;99.90
17172;DHT22;8701;50.150;8.756;2024-02-14T20:35:04;11.70;99.90
17172;DHT22;8701;50.150;8.756;2024-02-14T20:39:07;11.70;99.90
17172;DHT22;8701;50.150;8.756;2024-02-14T20:43:09;11.70;99.90
17172;DHT22;8701;50.150;8.756;2024-02-14T20:47:13;11.60;99.90
17172;DHT22;8701;50.150;8.756;2024-02-14T20:51:18;11.60;99.90
17172;DHT22;8701;50.150;8.756;2024-02-14T20:55:21;11.60;99.90
17172;DHT22;8701;50.150;8.756;2024-02-14T20:59:23;11.60;99.90
17172;DHT22;8701;50.150;8.756;2024-02-14T21:03:27;11.60;99.90
17172;DHT22;8701;50.150;8.756;2024-02-14T21:07:29;11.50;99.90
17172;DHT22;8701;50.150;8.756;2024-02-14T21:11:31;11.50;99.90
17172;DHT22;8701;50.150;8.756;2024-02-14T21:15:34;11.50;99.90
17172;DHT22;8701;50.150;8.756;2024-02-14T21:19:38;11.60;99.90
17172;DHT22;8701;50.150;8.756;2024-02-14T21:23:40;11.50;99.90
17172;DHT22;8701;50.150;8.756;2024-02-14T21:27:42;11.60;99.90
17172;DHT22;8701;50.150;8.756;2024-02-14T21:31:47;11.50;99.90
17172;DHT22;8701;50.150;8.756;2024-02-14T21:35:51;11.50;99.90
17172;DHT22;8701;50.150;8.756;2024-02-14T21:39:59;11.50;99.90
17172;DHT22;8701;50.150;8.756;2024-02-14T21:44:01;11.50;99.90
17172;DHT22;8701;50.150;8.756;2024-02-14T21:48:04;11.50;99.90
17172;DHT22;8701;50.150;8.756;2024-02-14T21:52:09;11.50;99.90
17172;DHT22;8701;50.150;8.756;2024-02-14T21:56:11;11.50;99.90
17172;DHT22;8701;50.150;8.756;2024-02-14T22:00:14;11.40;99.90
17172;DHT22;8701;50.150;8.756;2024-02-14T22:04:17;11.50;99.90
17172;DHT22;8701;50.150;8.756;2024-02-14T22:08:21;11.40;99.90
17172;DHT22;8701;50.150;8.756;2024-02-14T22:12:24;11.40;99.90
17172;DHT22;8701;50.150;8.756;2024-02-14T22:16:27;11.40;99.90
17172;DHT22;8701;50.150;8.756;2024-02-14T22:20:29;11.40;99.90
17172;DHT22;8701;50.150;8.756;2024-02-14T22:24:33;11.40;99.90
17172;DHT22;8701;50.150;8.756;2024-02-14T22:28:36;11.30;99.90
17172;DHT22;8701;50.150;8.756;2024-02-14T22:32:38;11.30;99.90
17172;DHT22;8701;50.150;8.756;2024-02-14T22:36:41;11.30;99.90
17172;DHT22;8701;50.150;8.756;2024-02-14T22:40:44;11.30;99.90
17172;DHT22;8701;50.150;8.756;2024-02-14T22:44:47;11.30;99.90
17172;DHT22;8701;50.150;8.756;2024-02-14T22:48:49;11.10;99.90
17172;DHT22;8701;50.150;8.756;2024-02-14T22:52:52;11.30;99.90
17172;DHT22;8701;50.150;8.756;2024-02-14T22:56:55;11.40;99.90
17172;DHT22;8701;50.150;8.756;2024-02-14T23:00:58;11.40;99.90
17172;DHT22;8701;50.150;8.756;2024-02-14T23:05:01;11.40;99.90
17172;DHT22;8701;50.150;8.756;2024-02-14T23:09:03;11.40;99.90
17172;DHT22;8701;50.150;8.756;2024-02-14T23:13:07;11.40;99.90
17172;DHT22;8701;50.150;8.756;2024-02-14T23:17:10;11.40;99.90
17172;DHT22;8701;50.150;8.756;2024-02-14T23:21:13;11.40;99.90
17172;DHT22;8701;50.150;8.756;2024-02-14T23:25:16;11.30;99.90
17172;DHT22;8701;50.150;8.756;2024-02-14T23:29:19;11.30;99.90
17172;DHT22;8701;50.150;8.756;2024-02-14T23:33:21;11.30;99.90
17172;DHT22;8701;50.150;8.756;2024-02-14T23:37:23;11.30;99.90
17172;DHT22;8701;50.150;8.756;2024-02-14T23:41:27;11.30;99.90
17172;DHT22;8701;50.150;8.756;2024-02-14T23:45:31;11.40;99.90
17172;DHT22;8701;50.150;8.756;2024-02-14T23:49:33;11.40;99.90
17172;DHT22;8701;50.150;8.756;2024-02-14T23:53:35;11.40;99.90
17172;DHT22;8701;50.150;8.756;2024-02-14T23:57:39;11.40;99.90
